createdAt,value
2018-07-30T00:00:17.201Z,3.83
2018-07-30T00:02:45.439Z,4.13
2018-07-30T00:05:14.475Z,3.90
2018-07-30T00:07:42.719Z,4.37
2018-07-30T00:10:11.721Z,4.00
2018-07-30T00:12:39.990Z,4.00
2018-07-30T00:15:08.233Z,4.20
2018-07-30T00:17:36.490Z,4.20
2018-07-30T00:20:04.760Z,4.03
2018-07-30T00:22:33.015Z,4.23
2018-07-30T00:25:01.264Z,4.23
2018-07-30T00:27:29.499Z,4.23
2018-07-30T00:29:58.000Z,4.47
2018-07-30T00:32:26.248Z,4.10
2018-07-30T00:34:54.488Z,4.27
2018-07-30T00:37:22.749Z,3.97
2018-07-30T00:39:50.997Z,4.43
2018-07-30T00:42:20.110Z,3.90
2018-07-30T00:44:48.359Z,4.47
2018-07-30T00:47:16.609Z,4.23
2018-07-30T00:52:20.073Z,4.47
2018-07-30T00:54:49.087Z,4.80
2018-07-30T00:57:17.332Z,5.10
2018-07-30T00:59:46.486Z,4.03
2018-07-30T01:02:14.730Z,4.37
2018-07-30T01:04:42.977Z,4.70
2018-07-30T01:07:12.021Z,5.43
2018-07-30T01:09:40.247Z,4.40
2018-07-30T01:12:09.266Z,4.77
2018-07-30T01:14:37.501Z,4.43
2018-07-30T01:17:06.506Z,4.80
2018-07-30T01:19:35.523Z,4.80
2018-07-30T01:22:03.767Z,4.37
2018-07-30T01:24:32.775Z,4.30
2018-07-30T01:27:01.367Z,4.70
2018-07-30T01:29:29.597Z,4.33
2018-07-30T01:31:57.841Z,4.80
2018-07-30T01:34:26.347Z,4.50
2018-07-30T01:36:54.586Z,4.63
2018-07-30T01:39:22.826Z,4.80
2018-07-30T01:41:51.841Z,4.50
2018-07-30T01:44:20.081Z,4.33
2018-07-30T01:46:49.090Z,4.73
2018-07-30T01:49:18.100Z,4.40
2018-07-30T01:51:46.355Z,4.90
2018-07-30T01:54:15.369Z,4.97
2018-07-30T01:56:43.630Z,4.63
2018-07-30T01:59:11.877Z,4.30
2018-07-30T02:01:40.894Z,4.60
2018-07-30T02:04:09.134Z,4.87
2018-07-30T02:06:37.386Z,4.43
2018-07-30T02:09:05.631Z,4.70
2018-07-30T02:11:33.881Z,4.27
2018-07-30T02:14:02.897Z,4.70
2018-07-30T02:16:31.138Z,4.50
2018-07-30T02:19:00.146Z,5.10
2018-07-30T02:21:29.177Z,5.00
2018-07-30T02:23:57.406Z,4.80
2018-07-30T02:26:26.434Z,4.37
2018-07-30T02:28:54.677Z,4.80
2018-07-30T02:31:23.738Z,4.70
2018-07-30T02:33:51.954Z,4.57
2018-07-30T02:36:20.975Z,4.80
2018-07-30T02:38:49.205Z,4.70
2018-07-30T02:41:18.209Z,4.67
2018-07-30T02:43:46.469Z,4.47
2018-07-30T02:46:15.510Z,4.53
2018-07-30T02:48:43.747Z,4.50
2018-07-30T02:51:12.771Z,5.10
2018-07-30T02:53:41.102Z,4.57
2018-07-30T02:56:09.318Z,5.03
2018-07-30T02:58:37.582Z,5.07
2018-07-30T03:01:05.824Z,4.90
2018-07-30T03:03:34.862Z,4.77
2018-07-30T03:06:03.117Z,4.73
2018-07-30T03:08:32.119Z,4.97
2018-07-30T03:11:00.384Z,5.17
2018-07-30T03:13:28.638Z,5.10
2018-07-30T03:15:57.643Z,5.17
2018-07-30T03:18:26.665Z,4.80
2018-07-30T03:20:54.914Z,4.77
2018-07-30T03:23:23.946Z,4.77
2018-07-30T03:25:52.182Z,4.90
2018-07-30T03:28:20.436Z,5.30
2018-07-30T03:30:48.687Z,5.33
2018-07-30T03:33:16.929Z,5.17
2018-07-30T03:35:45.193Z,5.50
2018-07-30T03:38:13.466Z,5.10
2018-07-30T03:40:41.709Z,4.70
2018-07-30T03:43:09.990Z,5.33
2018-07-30T03:45:38.193Z,5.53
2018-07-30T03:48:06.522Z,5.20
2018-07-30T03:50:35.766Z,5.33
2018-07-30T03:53:04.013Z,5.07
2018-07-30T03:55:32.241Z,5.37
2018-07-30T03:58:00.538Z,5.17
2018-07-30T04:00:28.790Z,4.87
2018-07-30T04:02:58.042Z,5.03
2018-07-30T04:05:27.066Z,4.57
2018-07-30T04:07:55.338Z,5.17
2018-07-30T04:10:24.331Z,5.03
2018-07-30T04:12:52.565Z,5.50
2018-07-30T04:15:21.598Z,5.50
2018-07-30T04:17:49.847Z,5.30
2018-07-30T04:20:18.851Z,5.27
2018-07-30T04:22:47.103Z,5.50
2018-07-30T04:25:16.664Z,5.53
2018-07-30T04:27:44.918Z,5.20
2018-07-30T04:30:13.162Z,5.40
2018-07-30T04:32:42.166Z,5.03
2018-07-30T04:35:10.432Z,5.20
2018-07-30T04:37:39.438Z,5.50
2018-07-30T04:40:07.843Z,5.47
2018-07-30T04:42:36.088Z,6.57
2018-07-30T04:45:04.326Z,5.87
2018-07-30T04:47:32.589Z,5.30
2018-07-30T04:50:00.830Z,5.20
2018-07-30T04:52:29.409Z,5.63
2018-07-30T04:54:57.650Z,5.90
2018-07-30T04:57:26.666Z,5.57
2018-07-30T04:59:55.681Z,5.93
2018-07-30T05:02:23.940Z,5.73
2018-07-30T05:04:52.327Z,5.90
2018-07-30T05:07:20.657Z,5.60
2018-07-30T05:09:48.901Z,5.20
2018-07-30T05:12:17.157Z,5.30
2018-07-30T05:14:45.390Z,5.67
2018-07-30T05:17:14.416Z,5.60
2018-07-30T05:19:42.666Z,5.87
2018-07-30T05:22:11.683Z,5.30
2018-07-30T05:24:40.264Z,5.83
2018-07-30T05:27:08.509Z,6.47
2018-07-30T05:29:37.518Z,6.37
2018-07-30T05:32:05.874Z,5.70
2018-07-30T05:34:34.883Z,6.07
2018-07-30T05:37:03.119Z,5.67
2018-07-30T05:39:31.373Z,6.10
2018-07-30T05:41:59.619Z,5.23
2018-07-30T05:44:28.155Z,5.83
2018-07-30T05:46:56.441Z,6.07
2018-07-30T05:49:24.658Z,5.77
2018-07-30T05:51:53.169Z,5.80
2018-07-30T05:54:21.413Z,5.23
2018-07-30T05:56:49.662Z,5.40
2018-07-30T05:59:18.817Z,5.40
2018-07-30T06:01:47.035Z,5.47
2018-07-30T06:04:15.273Z,5.03
2018-07-30T06:06:43.528Z,5.10
2018-07-30T06:09:12.538Z,4.77
2018-07-30T06:11:40.797Z,5.37
2018-07-30T06:14:09.050Z,5.40
2018-07-30T06:16:37.281Z,5.03
2018-07-30T06:19:05.659Z,4.80
2018-07-30T06:21:34.678Z,5.33
2018-07-30T06:24:02.934Z,5.17
2018-07-30T06:26:31.961Z,4.90
2018-07-30T06:29:00.183Z,4.90
2018-07-30T06:31:28.445Z,4.50
2018-07-30T06:33:56.686Z,4.70
2018-07-30T06:36:24.945Z,4.97
2018-07-30T06:38:53.200Z,5.10
2018-07-30T06:41:22.218Z,4.47
2018-07-30T06:43:50.458Z,5.00
2018-07-30T06:46:19.486Z,4.90
2018-07-30T06:48:47.742Z,5.00
2018-07-30T06:51:16.771Z,5.10
2018-07-30T06:53:45.023Z,4.77
2018-07-30T06:56:13.615Z,5.17
2018-07-30T06:58:41.868Z,5.37
2018-07-30T07:01:10.895Z,4.67
2018-07-30T07:03:39.151Z,4.93
2018-07-30T07:06:07.713Z,4.83
2018-07-30T07:08:36.745Z,5.27
2018-07-30T07:11:04.995Z,4.60
2018-07-30T07:13:33.346Z,5.23
2018-07-30T07:16:01.586Z,4.70
2018-07-30T07:18:30.594Z,4.90
2018-07-30T07:20:58.856Z,5.20
2018-07-30T07:23:27.853Z,4.60
2018-07-30T07:25:56.110Z,5.00
2018-07-30T07:28:24.359Z,4.87
2018-07-30T07:30:52.611Z,4.57
2018-07-30T07:33:21.609Z,4.70
2018-07-30T07:35:50.675Z,4.67
2018-07-30T07:38:18.935Z,4.97
2018-07-30T07:40:47.182Z,4.57
2018-07-30T07:43:15.443Z,4.97
2018-07-30T07:45:43.685Z,4.50
2018-07-30T07:48:11.926Z,4.50
2018-07-30T07:50:40.252Z,4.97
2018-07-30T07:53:09.566Z,4.30
2018-07-30T07:55:37.828Z,4.60
2018-07-30T07:58:06.830Z,4.93
2018-07-30T08:00:35.086Z,4.50
2018-07-30T08:03:04.114Z,4.23
2018-07-30T08:05:32.345Z,4.33
2018-07-30T08:08:01.366Z,4.70
2018-07-30T08:10:29.954Z,4.57
2018-07-30T08:12:58.199Z,4.57
2018-07-30T08:15:27.201Z,4.97
2018-07-30T08:17:56.222Z,4.27
2018-07-30T08:20:24.457Z,4.53
2018-07-30T08:22:53.482Z,4.33
2018-07-30T08:25:21.721Z,4.07
2018-07-30T08:27:50.747Z,4.70
2018-07-30T08:30:18.998Z,4.40
2018-07-30T08:32:48.321Z,4.60
2018-07-30T08:35:16.568Z,4.40
2018-07-30T08:37:45.573Z,4.50
2018-07-30T08:40:14.587Z,4.60
2018-07-30T08:42:42.827Z,4.73
2018-07-30T08:45:11.846Z,4.30
2018-07-30T08:47:40.086Z,4.20
2018-07-30T08:50:08.345Z,4.80
2018-07-30T08:52:37.005Z,4.37
2018-07-30T08:55:05.285Z,4.63
2018-07-30T08:57:33.503Z,4.37
2018-07-30T09:00:02.527Z,4.33
2018-07-30T09:02:30.790Z,4.30
2018-07-30T09:04:59.040Z,4.43
2018-07-30T09:07:27.547Z,4.57
2018-07-30T09:09:55.798Z,4.27
2018-07-30T09:12:24.844Z,4.63
2018-07-30T09:14:53.163Z,4.37
2018-07-30T09:17:21.418Z,4.77
2018-07-30T09:19:49.613Z,4.80
2018-07-30T09:22:17.862Z,4.80
2018-07-30T09:24:46.107Z,4.27
2018-07-30T09:27:14.347Z,4.20
2018-07-30T09:29:43.385Z,4.10
2018-07-30T09:32:11.637Z,4.67
2018-07-30T09:34:39.874Z,4.80
2018-07-30T09:37:08.149Z,4.13
2018-07-30T09:39:36.454Z,4.10
2018-07-30T09:42:04.667Z,4.63
2018-07-30T09:47:07.610Z,4.33
2018-07-30T09:49:36.621Z,4.23
2018-07-30T09:52:04.882Z,3.80
2018-07-30T09:54:33.886Z,3.87
2018-07-30T09:57:02.134Z,3.90
2018-07-30T09:59:30.411Z,3.87
2018-07-30T10:01:58.651Z,4.20
2018-07-30T10:04:26.902Z,3.60
2018-07-30T10:06:55.162Z,3.73
2018-07-30T10:09:23.417Z,3.70
2018-07-30T10:11:51.661Z,3.70
2018-07-30T10:14:19.903Z,3.77
2018-07-30T10:16:48.146Z,3.53
2018-07-30T10:19:17.165Z,3.67
2018-07-30T10:21:45.405Z,3.30
2018-07-30T10:24:14.451Z,3.53
2018-07-30T10:26:42.692Z,3.60
2018-07-30T10:29:11.697Z,3.53
2018-07-30T10:31:40.280Z,3.33
2018-07-30T10:34:08.517Z,3.50
2018-07-30T10:36:37.532Z,3.63
2018-07-30T10:39:06.542Z,3.70
2018-07-30T10:41:34.795Z,3.40
2018-07-30T10:44:03.843Z,3.50
2018-07-30T10:46:32.099Z,3.40
2018-07-30T10:49:00.424Z,3.97
2018-07-30T10:51:28.638Z,3.37
2018-07-30T10:53:56.886Z,3.67
2018-07-30T10:56:25.891Z,3.23
2018-07-30T10:58:54.153Z,3.47
2018-07-30T11:01:23.164Z,3.57
2018-07-30T11:03:51.422Z,3.40
2018-07-30T11:06:20.430Z,3.33
2018-07-30T11:08:48.690Z,3.40
2018-07-30T11:11:17.701Z,3.10
2018-07-30T11:13:45.941Z,3.23
2018-07-30T11:16:14.957Z,3.10
2018-07-30T11:18:43.198Z,3.10
2018-07-30T11:21:11.452Z,3.40
2018-07-30T11:23:39.693Z,3.53
2018-07-30T11:26:07.945Z,3.03
2018-07-30T11:28:36.955Z,3.23
2018-07-30T11:31:05.190Z,3.03
2018-07-30T11:33:33.493Z,3.20
2018-07-30T11:36:01.683Z,3.20
2018-07-30T11:38:29.945Z,3.00
2018-07-30T11:40:58.199Z,3.50
2018-07-30T11:43:27.201Z,3.27
2018-07-30T11:45:56.211Z,3.13
2018-07-30T11:48:24.492Z,3.10
2018-07-30T11:50:53.527Z,3.40
2018-07-30T11:53:21.769Z,3.00
2018-07-30T11:55:50.141Z,3.00
2018-07-30T11:58:18.378Z,3.10
2018-07-30T12:00:47.388Z,2.80
2018-07-30T12:03:15.642Z,3.40
2018-07-30T12:05:43.877Z,2.80
2018-07-30T12:08:12.365Z,3.10
2018-07-30T12:10:40.614Z,2.90
2018-07-30T12:13:08.864Z,3.07
2018-07-30T12:15:38.061Z,3.00
2018-07-30T12:18:07.062Z,3.27
2018-07-30T12:20:35.326Z,3.40
2018-07-30T12:23:04.412Z,3.03
2018-07-30T12:25:32.634Z,3.20
2018-07-30T12:28:00.886Z,3.20
2018-07-30T12:30:29.242Z,3.10
2018-07-30T12:32:57.565Z,2.97
2018-07-30T12:35:25.828Z,3.27
2018-07-30T12:37:54.067Z,3.00
2018-07-30T12:40:23.069Z,3.30
2018-07-30T12:42:51.341Z,2.90
2018-07-30T12:45:19.742Z,3.10
2018-07-30T12:47:47.994Z,3.30
2018-07-30T12:50:16.230Z,3.03
2018-07-30T12:52:44.502Z,2.93
2018-07-30T12:55:12.754Z,2.93
2018-07-30T12:57:40.999Z,3.20
2018-07-30T13:00:09.247Z,3.13
2018-07-30T13:02:38.184Z,3.20
2018-07-30T13:05:06.419Z,3.60
2018-07-30T13:07:35.428Z,3.50
2018-07-30T13:10:03.918Z,3.13
2018-07-30T13:12:32.165Z,3.10
2018-07-30T13:15:01.174Z,3.30
2018-07-30T13:17:29.437Z,3.33
2018-07-30T13:19:58.437Z,3.33
2018-07-30T13:22:27.457Z,3.70
2018-07-30T13:24:55.814Z,3.60
2018-07-30T13:27:24.815Z,3.30
2018-07-30T13:29:53.089Z,3.57
2018-07-30T13:32:22.113Z,3.30
2018-07-30T13:34:50.358Z,3.13
2018-07-30T13:37:18.605Z,3.60
2018-07-30T13:39:46.851Z,3.80
2018-07-30T13:42:15.103Z,3.33
2018-07-30T13:44:43.663Z,3.43
2018-07-30T13:47:11.921Z,3.37
2018-07-30T13:49:40.956Z,3.33
2018-07-30T13:52:09.426Z,3.27
2018-07-30T13:54:37.722Z,3.70
2018-07-30T13:57:06.669Z,3.20
2018-07-30T13:59:34.926Z,3.37
2018-07-30T14:02:03.933Z,3.40
2018-07-30T14:04:32.463Z,3.80
2018-07-30T14:07:00.706Z,3.53
2018-07-30T14:09:28.946Z,3.50
2018-07-30T14:11:58.065Z,3.67
2018-07-30T14:14:26.302Z,3.63
2018-07-30T14:16:54.542Z,3.60
2018-07-30T14:19:22.807Z,3.83
2018-07-30T14:21:51.060Z,3.73
2018-07-30T14:24:20.079Z,3.43
2018-07-30T14:26:48.326Z,3.43
2018-07-30T14:29:16.599Z,3.43
2018-07-30T14:31:45.615Z,3.73
2018-07-30T14:34:13.844Z,3.47
2018-07-30T14:36:42.158Z,3.70
2018-07-30T14:39:10.847Z,3.20
2018-07-30T14:41:39.098Z,3.37
2018-07-30T14:44:08.120Z,3.67
2018-07-30T14:46:36.369Z,3.70
2018-07-30T14:49:04.641Z,3.80
2018-07-30T14:51:33.708Z,3.80
2018-07-30T14:54:01.900Z,3.13
2018-07-30T14:56:30.913Z,3.97
2018-07-30T14:58:59.188Z,3.57
2018-07-30T15:01:27.670Z,3.80
2018-07-30T15:03:55.906Z,3.67
2018-07-30T15:06:24.169Z,3.43
2018-07-30T15:08:52.427Z,3.07
2018-07-30T15:11:20.701Z,3.30
2018-07-30T15:13:50.006Z,3.20
2018-07-30T15:16:18.254Z,3.43
2018-07-30T15:18:46.509Z,3.60
2018-07-30T15:21:14.882Z,3.50
2018-07-30T15:23:43.165Z,3.10
2018-07-30T15:26:12.175Z,3.37
2018-07-30T15:28:40.425Z,3.43
2018-07-30T15:31:09.423Z,3.60
2018-07-30T15:33:38.451Z,3.47
2018-07-30T15:36:06.692Z,3.13
2018-07-30T15:38:34.928Z,3.47
2018-07-30T15:41:03.208Z,3.17
2018-07-30T15:43:31.462Z,3.63
2018-07-30T15:45:59.697Z,3.30
2018-07-30T15:48:28.711Z,3.37
2018-07-30T15:50:56.969Z,3.50
2018-07-30T15:53:25.254Z,3.40
2018-07-30T15:55:53.508Z,3.30
2018-07-30T15:58:21.774Z,3.60
2018-07-30T16:00:50.800Z,3.27
2018-07-30T16:03:19.050Z,3.60
2018-07-30T16:05:47.339Z,5.60
2018-07-30T16:08:15.571Z,4.20
2018-07-30T16:10:43.830Z,3.73
2018-07-30T16:13:12.112Z,3.43
2018-07-30T16:15:40.379Z,3.50
2018-07-30T16:18:08.617Z,3.80
2018-07-30T16:20:36.875Z,3.30
2018-07-30T16:23:05.441Z,3.90
2018-07-30T16:25:33.646Z,3.30
2018-07-30T16:28:01.914Z,3.90
2018-07-30T16:30:30.424Z,3.50
2018-07-30T16:33:00.150Z,3.60
2018-07-30T16:35:28.412Z,4.00
2018-07-30T16:37:56.662Z,3.90
2018-07-30T16:40:24.910Z,3.80
2018-07-30T16:42:54.220Z,3.97
2018-07-30T16:45:22.468Z,4.40
2018-07-30T16:47:51.478Z,3.77
2018-07-30T16:50:19.738Z,4.10
2018-07-30T16:52:48.752Z,3.67
2018-07-30T16:55:17.005Z,3.80
2018-07-30T16:57:46.249Z,3.37
2018-07-30T17:00:14.504Z,3.57
2018-07-30T17:02:42.749Z,3.73
2018-07-30T17:05:11.784Z,3.90
2018-07-30T17:07:40.330Z,3.53
2018-07-30T17:10:09.354Z,3.73
2018-07-30T17:12:37.603Z,3.93
2018-07-30T17:15:06.630Z,3.93
2018-07-30T17:17:34.879Z,3.70
2018-07-30T17:20:03.157Z,3.67
2018-07-30T17:22:31.398Z,3.70
2018-07-30T17:24:59.660Z,3.67
2018-07-30T17:27:27.975Z,3.53
2018-07-30T17:29:57.154Z,3.63
2018-07-30T17:32:25.365Z,4.00
2018-07-30T17:34:53.878Z,4.07
2018-07-30T17:37:22.141Z,3.70
2018-07-30T17:39:50.669Z,3.93
2018-07-30T17:42:19.947Z,3.77
2018-07-30T17:44:48.199Z,3.50
2018-07-30T17:47:16.723Z,3.57
2018-07-30T17:49:45.985Z,3.43
2018-07-30T17:52:14.261Z,3.20
2018-07-30T17:54:42.502Z,3.67
2018-07-30T17:57:11.047Z,3.70
2018-07-30T17:59:40.132Z,3.67
2018-07-30T18:02:08.443Z,3.20
2018-07-30T18:04:37.668Z,3.60
2018-07-30T18:07:05.929Z,3.30
2018-07-30T18:09:35.753Z,3.70
2018-07-30T18:12:03.995Z,4.00
2018-07-30T18:14:33.035Z,3.50
2018-07-30T18:17:01.546Z,4.27
2018-07-30T18:19:29.789Z,3.70
2018-07-30T18:21:58.050Z,3.97
2018-07-30T18:24:26.325Z,3.20
2018-07-30T18:26:54.604Z,4.00
2018-07-30T18:29:22.896Z,3.40
2018-07-30T18:31:51.120Z,3.93
2018-07-30T18:34:19.386Z,3.53
2018-07-30T18:36:48.409Z,3.63
2018-07-30T18:39:16.725Z,3.30
2018-07-30T18:41:44.975Z,3.80
2018-07-30T18:44:13.259Z,3.50
2018-07-30T18:46:41.496Z,3.50
2018-07-30T18:49:09.747Z,3.90
2018-07-30T18:51:38.119Z,3.90
2018-07-30T18:54:06.394Z,3.40
2018-07-30T18:56:34.720Z,3.93
2018-07-30T18:59:02.919Z,3.63
2018-07-30T19:01:31.163Z,3.80
2018-07-30T19:03:59.421Z,3.90
2018-07-30T19:06:27.817Z,3.60
2018-07-30T19:08:56.057Z,3.67
2018-07-30T19:11:25.145Z,3.23
2018-07-30T19:13:53.524Z,3.80
2018-07-30T19:16:21.984Z,3.57
2018-07-30T19:18:50.495Z,3.70
2018-07-30T19:21:19.027Z,3.90
2018-07-30T19:23:47.575Z,4.20
2018-07-30T19:26:16.149Z,3.97
2018-07-30T19:28:44.676Z,3.90
2018-07-30T19:31:13.218Z,4.00
2018-07-30T19:33:41.760Z,3.63
2018-07-30T19:36:10.254Z,4.20
2018-07-30T19:38:39.564Z,3.83
2018-07-30T19:41:08.090Z,4.03
2018-07-30T19:43:36.597Z,4.37
2018-07-30T19:46:05.153Z,3.93
2018-07-30T19:48:33.803Z,4.10
2018-07-30T19:51:02.091Z,3.47
2018-07-30T19:53:30.636Z,4.20
2018-07-30T19:55:59.920Z,4.07
2018-07-30T19:58:28.366Z,3.80
2018-07-30T20:00:57.599Z,4.20
2018-07-30T20:03:27.197Z,4.47
2018-07-30T20:05:56.427Z,4.03
2018-07-30T20:08:25.076Z,4.47
2018-07-30T20:10:53.564Z,4.23
2018-07-30T20:13:23.302Z,4.20
2018-07-30T20:15:52.316Z,4.13
2018-07-30T20:18:20.825Z,3.93
2018-07-30T20:20:49.602Z,4.50
2018-07-30T20:23:18.173Z,4.40
2018-07-30T20:25:46.697Z,4.53
2018-07-30T20:28:14.950Z,4.07
2018-07-30T20:30:44.328Z,4.60
2018-07-30T20:33:12.820Z,4.53
2018-07-30T20:35:41.080Z,4.40
2018-07-30T20:38:09.337Z,4.20
2018-07-30T20:40:38.342Z,4.50
2018-07-30T20:43:06.602Z,4.60
2018-07-30T20:45:34.852Z,4.60
2018-07-30T20:48:03.379Z,4.47
2018-07-30T20:50:31.658Z,4.23
2018-07-30T20:53:00.630Z,4.60
2018-07-30T20:55:28.922Z,4.73
2018-07-30T20:57:57.166Z,4.70
2018-07-30T21:00:26.182Z,4.80
2018-07-30T21:02:54.438Z,4.80
2018-07-30T21:05:23.444Z,4.60
2018-07-30T21:07:51.735Z,4.50
2018-07-30T21:10:20.707Z,4.60
2018-07-30T21:12:48.971Z,4.57
2018-07-30T21:15:17.978Z,4.50
2018-07-30T21:17:46.233Z,4.70
2018-07-30T21:20:15.253Z,5.10
2018-07-30T21:22:43.512Z,4.30
2018-07-30T21:25:11.769Z,4.80
2018-07-30T21:27:40.796Z,4.90
2018-07-30T21:30:09.052Z,4.53
2018-07-30T21:32:38.058Z,4.90
2018-07-30T21:35:06.309Z,4.93
2018-07-30T21:37:35.636Z,4.93
2018-07-30T21:40:03.878Z,4.53
2018-07-30T21:42:32.885Z,4.50
2018-07-30T21:45:01.911Z,4.07
2018-07-30T21:47:30.165Z,4.93
2018-07-30T21:49:58.547Z,5.00
2018-07-30T21:52:26.789Z,4.60
2018-07-30T21:54:55.806Z,5.10
2018-07-30T21:57:24.363Z,5.00
2018-07-30T21:59:52.606Z,4.73
2018-07-30T22:02:20.838Z,4.80
2018-07-30T22:04:49.090Z,4.90
2018-07-30T22:07:18.103Z,4.70
2018-07-30T22:09:46.356Z,5.20
2018-07-30T22:12:15.402Z,4.80
2018-07-30T22:14:43.722Z,4.40
2018-07-30T22:17:11.996Z,4.50
2018-07-30T22:19:40.233Z,4.27
2018-07-30T22:22:08.491Z,4.73
2018-07-30T22:24:36.742Z,4.87
2018-07-30T22:27:05.024Z,4.43
2018-07-30T22:29:34.034Z,5.43
2018-07-30T22:32:02.266Z,5.00
2018-07-30T22:34:31.286Z,4.57
2018-07-30T22:36:59.534Z,4.97
2018-07-30T22:39:28.660Z,5.23
2018-07-30T22:41:57.008Z,5.47
2018-07-30T22:44:25.211Z,4.87
2018-07-30T22:46:53.454Z,4.97
2018-07-30T22:49:22.472Z,4.80
2018-07-30T22:51:50.718Z,5.10
2018-07-30T22:54:19.751Z,5.00
2018-07-30T22:56:48.002Z,5.30
2018-07-30T22:59:16.273Z,4.60
2018-07-30T23:01:45.285Z,4.77
2018-07-30T23:04:13.532Z,4.40
2018-07-30T23:06:42.545Z,5.27
2018-07-30T23:09:10.788Z,4.40
2018-07-30T23:11:39.025Z,5.10
2018-07-30T23:14:07.285Z,5.00
2018-07-30T23:16:35.566Z,5.20
2018-07-30T23:19:03.827Z,4.77
2018-07-30T23:21:32.070Z,4.80
2018-07-30T23:24:01.115Z,4.90
2018-07-30T23:26:29.349Z,5.33
2018-07-30T23:28:58.361Z,5.10
2018-07-30T23:31:26.628Z,5.23
2018-07-30T23:33:54.897Z,4.70
2018-07-30T23:36:23.924Z,5.43
2018-07-30T23:38:52.158Z,5.20
2018-07-30T23:41:21.198Z,4.53
2018-07-30T23:43:49.457Z,5.10
2018-07-30T23:46:17.712Z,4.87
2018-07-30T23:48:45.960Z,5.20
2018-07-30T23:51:14.217Z,4.87
2018-07-30T23:53:42.509Z,4.83
2018-07-30T23:56:10.730Z,5.03
2018-07-30T23:58:38.969Z,5.47
